TimeCDT,TemperatureF,Dew PointF,Humidity,Sea Level PressureIn,VisibilityMPH,Wind Direction,Wind SpeedMPH,Gust SpeedMPH,PrecipitationIn,Events,Conditions,WindDirDegrees,DateUTC
12:53 AM,37.0,32.0,82,29.98,10.0,SSW,4.6,-,N/A,,Clear,210,2012-10-10 05:53:00
1:53 AM,35.1,30.9,85,29.99,10.0,SW,4.6,-,N/A,,Clear,220,2012-10-10 06:53:00
2:53 AM,34.0,30.9,89,30.00,10.0,South,4.6,-,N/A,,Partly Cloudy,180,2012-10-10 07:53:00
3:53 AM,33.1,30.0,89,30.01,10.0,SSW,3.5,-,N/A,,Clear,210,2012-10-10 08:53:00
4:53 AM,33.1,28.9,85,30.04,10.0,SW,4.6,-,N/A,,Clear,230,2012-10-10 09:53:00
5:53 AM,30.9,27.0,85,30.06,10.0,SW,4.6,-,N/A,,Clear,230,2012-10-10 10:53:00
6:53 AM,30.9,27.0,85,30.09,10.0,WSW,4.6,-,N/A,,Clear,240,2012-10-10 11:53:00
7:53 AM,33.1,28.0,82,30.12,10.0,WSW,6.9,-,N/A,,Partly Cloudy,240,2012-10-10 12:53:00
8:53 AM,37.0,30.0,76,30.14,10.0,WSW,5.8,-,N/A,,Clear,250,2012-10-10 13:53:00
9:53 AM,39.9,30.0,68,30.16,10.0,West,9.2,-,N/A,,Clear,260,2012-10-10 14:53:00
10:53 AM,45.0,30.0,56,30.15,10.0,NW,8.1,17.3,N/A,,Clear,310,2012-10-10 15:53:00
11:53 AM,46.9,28.0,48,30.15,10.0,West,10.4,19.6,N/A,,Clear,280,2012-10-10 16:53:00
12:53 PM,48.9,27.0,43,30.15,10.0,West,10.4,-,N/A,,Scattered Clouds,280,2012-10-10 17:53:00
1:53 PM,50.0,26.1,39,30.14,10.0,West,12.7,-,N/A,,Mostly Cloudy,280,2012-10-10 18:53:00
2:53 PM,52.0,27.0,38,30.13,10.0,West,8.1,-,N/A,,Partly Cloudy,270,2012-10-10 19:53:00
3:53 PM,52.0,26.1,37,30.13,10.0,NW,13.8,20.7,N/A,,Clear,320,2012-10-10 20:53:00
4:53 PM,51.1,24.1,35,30.12,10.0,WNW,11.5,18.4,N/A,,Clear,300,2012-10-10 21:53:00
5:53 PM,48.9,25.0,39,30.13,10.0,WSW,6.9,-,N/A,,Clear,250,2012-10-10 22:53:00
6:53 PM,44.1,27.0,51,30.13,9.0,South,3.5,-,N/A,,Clear,180,2012-10-10 23:53:00
7:53 PM,37.9,28.9,70,30.14,10.0,Calm,Calm,-,N/A,,Clear,0,2012-10-11 00:53:00
8:53 PM,37.9,30.9,76,30.13,10.0,Calm,Calm,-,N/A,,Clear,0,2012-10-11 01:53:00
9:53 PM,35.1,30.0,82,30.12,10.0,Calm,Calm,-,N/A,,Mostly Cloudy,0,2012-10-11 02:53:00
10:23 PM,37.4,32.0,81,30.09,2.5,Calm,Calm,-,N/A,,Haze,0,2012-10-11 03:23:00
10:32 PM,37.4,30.2,75,30.08,10.0,Calm,Calm,-,N/A,,Overcast,0,2012-10-11 03:32:00
10:53 PM,37.9,30.9,76,30.11,10.0,NNW,3.5,-,N/A,,Overcast,330,2012-10-11 03:53:00
11:53 PM,39.0,30.9,73,30.09,10.0,Calm,Calm,-,N/A,,Clear,0,2012-10-11 04:53:00